sensor_id;sensor_type;location;lat;lon;timestamp;P1;durP1;ratioP1;P2;durP2;ratioP2
3046;SDS011;1533;44.816;20.420;2022-11-15T00:01:15;25.80;;;20.33;;
3046;SDS011;1533;44.816;20.420;2022-11-15T00:03:42;29.83;;;22.37;;
3046;SDS011;1533;44.816;20.420;2022-11-15T00:06:08;26.27;;;21.10;;
3046;SDS011;1533;44.816;20.420;2022-11-15T00:08:33;27.90;;;19.13;;
3046;SDS011;1533;44.816;20.420;2022-11-15T00:11:00;27.57;;;20.80;;
3046;SDS011;1533;44.816;20.420;2022-11-15T00:13:26;28.50;;;20.63;;
3046;SDS011;1533;44.816;20.420;2022-11-15T00:15:52;27.90;;;19.87;;
3046;SDS011;1533;44.816;20.420;2022-11-15T00:18:17;25.67;;;20.53;;
3046;SDS011;1533;44.816;20.420;2022-11-15T00:20:43;26.33;;;19.50;;
3046;SDS011;1533;44.816;20.420;2022-11-15T00:23:09;25.93;;;19.70;;
3046;SDS011;1533;44.816;20.420;2022-11-15T00:25:34;25.80;;;19.07;;
3046;SDS011;1533;44.816;20.420;2022-11-15T00:28:00;24.00;;;19.00;;
3046;SDS011;1533;44.816;20.420;2022-11-15T00:30:26;23.33;;;18.90;;
3046;SDS011;1533;44.816;20.420;2022-11-15T00:32:52;24.63;;;18.90;;
3046;SDS011;1533;44.816;20.420;2022-11-15T00:35:18;24.83;;;18.87;;
3046;SDS011;1533;44.816;20.420;2022-11-15T00:37:44;27.97;;;19.93;;
3046;SDS011;1533;44.816;20.420;2022-11-15T00:40:09;25.30;;;19.53;;
3046;SDS011;1533;44.816;20.420;2022-11-15T00:42:35;25.27;;;19.00;;
3046;SDS011;1533;44.816;20.420;2022-11-15T00:45:01;25.20;;;18.30;;
3046;SDS011;1533;44.816;20.420;2022-11-15T00:47:26;24.37;;;17.70;;
3046;SDS011;1533;44.816;20.420;2022-11-15T00:49:52;24.60;;;18.73;;
3046;SDS011;1533;44.816;20.420;2022-11-15T00:52:17;28.33;;;20.40;;
3046;SDS011;1533;44.816;20.420;2022-11-15T00:54:44;27.70;;;20.10;;
3046;SDS011;1533;44.816;20.420;2022-11-15T00:57:09;26.90;;;20.03;;
3046;SDS011;1533;44.816;20.420;2022-11-15T00:59:35;30.23;;;20.37;;
3046;SDS011;1533;44.816;20.420;2022-11-15T01:02:00;33.20;;;20.67;;
3046;SDS011;1533;44.816;20.420;2022-11-15T01:04:26;25.10;;;19.50;;
3046;SDS011;1533;44.816;20.420;2022-11-15T01:06:52;32.33;;;21.03;;
3046;SDS011;1533;44.816;20.420;2022-11-15T01:09:17;27.77;;;21.77;;
3046;SDS011;1533;44.816;20.420;2022-11-15T01:11:45;28.97;;;21.53;;
3046;SDS011;1533;44.816;20.420;2022-11-15T01:14:11;25.50;;;19.27;;
3046;SDS011;1533;44.816;20.420;2022-11-15T01:16:36;28.07;;;20.60;;
3046;SDS011;1533;44.816;20.420;2022-11-15T01:19:02;27.37;;;20.50;;
3046;SDS011;1533;44.816;20.420;2022-11-15T01:21:28;30.83;;;22.00;;
3046;SDS011;1533;44.816;20.420;2022-11-15T01:23:53;29.40;;;20.17;;
3046;SDS011;1533;44.816;20.420;2022-11-15T01:26:20;25.27;;;20.73;;
3046;SDS011;1533;44.816;20.420;2022-11-15T01:28:46;32.33;;;21.50;;
3046;SDS011;1533;44.816;20.420;2022-11-15T01:31:13;26.90;;;21.27;;
3046;SDS011;1533;44.816;20.420;2022-11-15T01:33:41;25.90;;;19.97;;
3046;SDS011;1533;44.816;20.420;2022-11-15T01:36:10;26.23;;;19.97;;
3046;SDS011;1533;44.816;20.420;2022-11-15T01:38:37;28.20;;;20.37;;
3046;SDS011;1533;44.816;20.420;2022-11-15T01:41:02;26.70;;;19.73;;
3046;SDS011;1533;44.816;20.420;2022-11-15T01:43:29;26.63;;;20.10;;
3046;SDS011;1533;44.816;20.420;2022-11-15T01:46:01;29.70;;;20.97;;
3046;SDS011;1533;44.816;20.420;2022-11-15T01:48:32;31.63;;;20.50;;
3046;SDS011;1533;44.816;20.420;2022-11-15T01:50:59;32.00;;;21.73;;
3046;SDS011;1533;44.816;20.420;2022-11-15T01:53:26;26.20;;;19.40;;
3046;SDS011;1533;44.816;20.420;2022-11-15T01:55:52;26.00;;;19.97;;
3046;SDS011;1533;44.816;20.420;2022-11-15T01:58:18;27.07;;;20.33;;
3046;SDS011;1533;44.816;20.420;2022-11-15T02:00:44;29.33;;;22.80;;
3046;SDS011;1533;44.816;20.420;2022-11-15T02:03:09;38.63;;;26.97;;
3046;SDS011;1533;44.816;20.420;2022-11-15T02:05:35;38.83;;;29.67;;
3046;SDS011;1533;44.816;20.420;2022-11-15T02:08:01;47.47;;;36.57;;
3046;SDS011;1533;44.816;20.420;2022-11-15T02:10:27;53.43;;;38.60;;
3046;SDS011;1533;44.816;20.420;2022-11-15T02:12:53;56.60;;;43.20;;
3046;SDS011;1533;44.816;20.420;2022-11-15T02:15:19;66.40;;;46.90;;
3046;SDS011;1533;44.816;20.420;2022-11-15T02:20:52;76.80;;;51.27;;
3046;SDS011;1533;44.816;20.420;2022-11-15T02:26:13;73.23;;;54.50;;
3046;SDS011;1533;44.816;20.420;2022-11-15T02:37:11;84.37;;;62.03;;
3046;SDS011;1533;44.816;20.420;2022-11-15T02:39:43;79.70;;;57.57;;
3046;SDS011;1533;44.816;20.420;2022-11-15T02:42:17;78.40;;;58.40;;
3046;SDS011;1533;44.816;20.420;2022-11-15T02:45:04;76.80;;;55.70;;
3046;SDS011;1533;44.816;20.420;2022-11-15T02:47:33;79.67;;;55.77;;
3046;SDS011;1533;44.816;20.420;2022-11-15T02:50:02;73.77;;;55.53;;
3046;SDS011;1533;44.816;20.420;2022-11-15T02:52:31;79.10;;;55.87;;
3046;SDS011;1533;44.816;20.420;2022-11-15T02:54:58;72.73;;;54.87;;
3046;SDS011;1533;44.816;20.420;2022-11-15T03:00:09;80.13;;;58.20;;
3046;SDS011;1533;44.816;20.420;2022-11-15T03:05:08;83.63;;;57.90;;
3046;SDS011;1533;44.816;20.420;2022-11-15T03:10:05;76.50;;;57.03;;
3046;SDS011;1533;44.816;20.420;2022-11-15T03:12:41;78.33;;;56.20;;
3046;SDS011;1533;44.816;20.420;2022-11-15T03:17:47;67.17;;;52.80;;
3046;SDS011;1533;44.816;20.420;2022-11-15T03:20:24;77.77;;;54.93;;
3046;SDS011;1533;44.816;20.420;2022-11-15T03:22:50;70.70;;;52.60;;
3046;SDS011;1533;44.816;20.420;2022-11-15T03:25:17;68.60;;;50.13;;
3046;SDS011;1533;44.816;20.420;2022-11-15T03:27:46;69.00;;;51.53;;
3046;SDS011;1533;44.816;20.420;2022-11-15T03:30:14;70.27;;;50.97;;
3046;SDS011;1533;44.816;20.420;2022-11-15T03:32:46;63.27;;;49.13;;
3046;SDS011;1533;44.816;20.420;2022-11-15T03:35:23;70.97;;;51.13;;
3046;SDS011;1533;44.816;20.420;2022-11-15T03:40:30;65.03;;;49.23;;
3046;SDS011;1533;44.816;20.420;2022-11-15T03:43:03;65.40;;;50.53;;
3046;SDS011;1533;44.816;20.420;2022-11-15T03:45:34;64.40;;;48.60;;
3046;SDS011;1533;44.816;20.420;2022-11-15T03:48:22;70.63;;;50.03;;
3046;SDS011;1533;44.816;20.420;2022-11-15T03:50:50;67.87;;;49.70;;
3046;SDS011;1533;44.816;20.420;2022-11-15T03:53:18;69.87;;;51.40;;
3046;SDS011;1533;44.816;20.420;2022-11-15T03:55:43;67.77;;;49.40;;
3046;SDS011;1533;44.816;20.420;2022-11-15T03:58:09;70.67;;;49.17;;
3046;SDS011;1533;44.816;20.420;2022-11-15T04:00:35;64.40;;;47.87;;
3046;SDS011;1533;44.816;20.420;2022-11-15T04:03:00;64.10;;;47.90;;
3046;SDS011;1533;44.816;20.420;2022-11-15T04:05:26;63.90;;;46.97;;
3046;SDS011;1533;44.816;20.420;2022-11-15T04:07:51;65.20;;;47.20;;
3046;SDS011;1533;44.816;20.420;2022-11-15T04:10:20;68.27;;;47.73;;
3046;SDS011;1533;44.816;20.420;2022-11-15T04:12:46;65.87;;;49.03;;
3046;SDS011;1533;44.816;20.420;2022-11-15T04:15:16;73.37;;;48.20;;
3046;SDS011;1533;44.816;20.420;2022-11-15T04:17:46;64.87;;;48.43;;
3046;SDS011;1533;44.816;20.420;2022-11-15T04:23:10;62.00;;;47.00;;
3046;SDS011;1533;44.816;20.420;2022-11-15T04:25:55;63.60;;;45.40;;
3046;SDS011;1533;44.816;20.420;2022-11-15T04:28:22;61.00;;;45.60;;
3046;SDS011;1533;44.816;20.420;2022-11-15T04:30:47;60.83;;;45.40;;
3046;SDS011;1533;44.816;20.420;2022-11-15T04:33:13;63.53;;;47.10;;
3046;SDS011;1533;44.816;20.420;2022-11-15T04:35:39;60.27;;;44.50;;
3046;SDS011;1533;44.816;20.420;2022-11-15T04:38:06;60.87;;;45.10;;
3046;SDS011;1533;44.816;20.420;2022-11-15T04:40:33;63.70;;;47.50;;
3046;SDS011;1533;44.816;20.420;2022-11-15T04:42:58;63.50;;;45.80;;
3046;SDS011;1533;44.816;20.420;2022-11-15T04:45:24;68.03;;;45.60;;
3046;SDS011;1533;44.816;20.420;2022-11-15T04:47:49;60.80;;;45.27;;
3046;SDS011;1533;44.816;20.420;2022-11-15T04:50:15;63.00;;;45.53;;
3046;SDS011;1533;44.816;20.420;2022-11-15T04:52:42;61.47;;;44.67;;
3046;SDS011;1533;44.816;20.420;2022-11-15T04:55:15;61.20;;;43.40;;
3046;SDS011;1533;44.816;20.420;2022-11-15T04:57:40;58.30;;;45.40;;
3046;SDS011;1533;44.816;20.420;2022-11-15T05:00:07;58.47;;;46.37;;
3046;SDS011;1533;44.816;20.420;2022-11-15T05:02:34;62.87;;;46.53;;
3046;SDS011;1533;44.816;20.420;2022-11-15T05:05:18;63.03;;;44.83;;
3046;SDS011;1533;44.816;20.420;2022-11-15T05:07:44;64.17;;;43.70;;
3046;SDS011;1533;44.816;20.420;2022-11-15T05:10:09;60.93;;;43.10;;
3046;SDS011;1533;44.816;20.420;2022-11-15T05:12:35;58.97;;;45.40;;
3046;SDS011;1533;44.816;20.420;2022-11-15T05:15:01;51.83;;;41.90;;
3046;SDS011;1533;44.816;20.420;2022-11-15T05:17:26;56.27;;;42.23;;
3046;SDS011;1533;44.816;20.420;2022-11-15T05:19:51;48.80;;;38.40;;
3046;SDS011;1533;44.816;20.420;2022-11-15T05:22:17;46.47;;;35.00;;
3046;SDS011;1533;44.816;20.420;2022-11-15T05:24:43;45.47;;;34.27;;
3046;SDS011;1533;44.816;20.420;2022-11-15T05:27:09;49.97;;;34.83;;
3046;SDS011;1533;44.816;20.420;2022-11-15T05:29:34;47.97;;;34.70;;
3046;SDS011;1533;44.816;20.420;2022-11-15T05:31:59;38.07;;;28.03;;
3046;SDS011;1533;44.816;20.420;2022-11-15T05:34:25;31.40;;;26.53;;
3046;SDS011;1533;44.816;20.420;2022-11-15T05:36:52;31.90;;;24.60;;
3046;SDS011;1533;44.816;20.420;2022-11-15T05:39:17;30.97;;;21.53;;
3046;SDS011;1533;44.816;20.420;2022-11-15T05:41:47;32.10;;;23.30;;
3046;SDS011;1533;44.816;20.420;2022-11-15T05:44:16;23.90;;;18.67;;
3046;SDS011;1533;44.816;20.420;2022-11-15T05:46:44;28.37;;;21.53;;
3046;SDS011;1533;44.816;20.420;2022-11-15T05:49:10;25.37;;;17.57;;
3046;SDS011;1533;44.816;20.420;2022-11-15T05:51:41;25.20;;;18.43;;
3046;SDS011;1533;44.816;20.420;2022-11-15T05:54:09;24.37;;;18.77;;
3046;SDS011;1533;44.816;20.420;2022-11-15T05:56:35;23.23;;;17.00;;
3046;SDS011;1533;44.816;20.420;2022-11-15T05:59:01;19.80;;;15.63;;
3046;SDS011;1533;44.816;20.420;2022-11-15T06:01:27;21.30;;;16.13;;
3046;SDS011;1533;44.816;20.420;2022-11-15T06:03:53;23.50;;;16.37;;
3046;SDS011;1533;44.816;20.420;2022-11-15T06:06:21;23.83;;;15.50;;
3046;SDS011;1533;44.816;20.420;2022-11-15T06:08:47;21.87;;;16.43;;
3046;SDS011;1533;44.816;20.420;2022-11-15T06:11:13;19.07;;;15.50;;
3046;SDS011;1533;44.816;20.420;2022-11-15T06:13:38;21.43;;;16.83;;
3046;SDS011;1533;44.816;20.420;2022-11-15T06:16:04;22.07;;;15.73;;
3046;SDS011;1533;44.816;20.420;2022-11-15T06:18:31;20.03;;;16.50;;
3046;SDS011;1533;44.816;20.420;2022-11-15T06:20:58;22.57;;;15.77;;
3046;SDS011;1533;44.816;20.420;2022-11-15T06:23:25;22.47;;;16.30;;
3046;SDS011;1533;44.816;20.420;2022-11-15T06:25:51;21.23;;;16.07;;
3046;SDS011;1533;44.816;20.420;2022-11-15T06:28:16;33.57;;;16.53;;
3046;SDS011;1533;44.816;20.420;2022-11-15T06:30:41;22.13;;;16.50;;
3046;SDS011;1533;44.816;20.420;2022-11-15T06:33:11;20.53;;;15.77;;
3046;SDS011;1533;44.816;20.420;2022-11-15T06:35:39;23.83;;;16.27;;
3046;SDS011;1533;44.816;20.420;2022-11-15T06:38:06;22.33;;;15.90;;
3046;SDS011;1533;44.816;20.420;2022-11-15T06:40:34;18.17;;;15.13;;
3046;SDS011;1533;44.816;20.420;2022-11-15T06:43:04;20.30;;;14.53;;
3046;SDS011;1533;44.816;20.420;2022-11-15T06:45:32;18.20;;;15.23;;
3046;SDS011;1533;44.816;20.420;2022-11-15T06:47:58;23.67;;;16.87;;
3046;SDS011;1533;44.816;20.420;2022-11-15T06:50:27;22.90;;;16.10;;
3046;SDS011;1533;44.816;20.420;2022-11-15T06:52:52;23.60;;;16.90;;
3046;SDS011;1533;44.816;20.420;2022-11-15T06:55:18;17.73;;;15.83;;
3046;SDS011;1533;44.816;20.420;2022-11-15T06:57:47;21.13;;;15.77;;
3046;SDS011;1533;44.816;20.420;2022-11-15T07:00:16;21.93;;;16.40;;
3046;SDS011;1533;44.816;20.420;2022-11-15T07:02:45;21.47;;;15.33;;
3046;SDS011;1533;44.816;20.420;2022-11-15T07:05:12;20.77;;;16.33;;
3046;SDS011;1533;44.816;20.420;2022-11-15T07:07:38;23.40;;;15.53;;
3046;SDS011;1533;44.816;20.420;2022-11-15T07:10:03;19.03;;;15.00;;
3046;SDS011;1533;44.816;20.420;2022-11-15T07:12:29;21.70;;;16.17;;
3046;SDS011;1533;44.816;20.420;2022-11-15T07:14:55;22.37;;;16.80;;
3046;SDS011;1533;44.816;20.420;2022-11-15T07:17:20;20.80;;;15.33;;
3046;SDS011;1533;44.816;20.420;2022-11-15T07:19:46;19.80;;;14.87;;
3046;SDS011;1533;44.816;20.420;2022-11-15T07:22:11;19.80;;;16.10;;
3046;SDS011;1533;44.816;20.420;2022-11-15T07:24:37;20.70;;;15.47;;
3046;SDS011;1533;44.816;20.420;2022-11-15T07:27:02;22.40;;;16.67;;
3046;SDS011;1533;44.816;20.420;2022-11-15T07:29:28;22.57;;;16.10;;
3046;SDS011;1533;44.816;20.420;2022-11-15T07:31:55;24.40;;;18.47;;
3046;SDS011;1533;44.816;20.420;2022-11-15T07:34:21;21.20;;;17.67;;
3046;SDS011;1533;44.816;20.420;2022-11-15T07:36:47;19.90;;;16.60;;
3046;SDS011;1533;44.816;20.420;2022-11-15T07:39:12;20.07;;;17.30;;
3046;SDS011;1533;44.816;20.420;2022-11-15T07:41:39;25.90;;;17.80;;
3046;SDS011;1533;44.816;20.420;2022-11-15T07:44:04;23.93;;;19.20;;
3046;SDS011;1533;44.816;20.420;2022-11-15T07:46:30;23.97;;;17.70;;
3046;SDS011;1533;44.816;20.420;2022-11-15T07:48:56;24.80;;;18.13;;
3046;SDS011;1533;44.816;20.420;2022-11-15T07:51:21;26.27;;;18.57;;
3046;SDS011;1533;44.816;20.420;2022-11-15T07:53:50;26.07;;;18.27;;
3046;SDS011;1533;44.816;20.420;2022-11-15T07:56:15;24.60;;;19.27;;
3046;SDS011;1533;44.816;20.420;2022-11-15T07:58:41;30.97;;;19.97;;
3046;SDS011;1533;44.816;20.420;2022-11-15T08:01:07;29.67;;;20.73;;
3046;SDS011;1533;44.816;20.420;2022-11-15T08:03:34;28.93;;;20.57;;
3046;SDS011;1533;44.816;20.420;2022-11-15T08:06:00;30.57;;;21.40;;
3046;SDS011;1533;44.816;20.420;2022-11-15T08:08:32;24.80;;;20.10;;
3046;SDS011;1533;44.816;20.420;2022-11-15T08:11:01;25.60;;;20.40;;
3046;SDS011;1533;44.816;20.420;2022-11-15T08:13:26;30.80;;;21.10;;
3046;SDS011;1533;44.816;20.420;2022-11-15T08:16:01;27.57;;;21.20;;
3046;SDS011;1533;44.816;20.420;2022-11-15T08:18:36;36.20;;;21.70;;
3046;SDS011;1533;44.816;20.420;2022-11-15T08:21:05;27.13;;;20.73;;
3046;SDS011;1533;44.816;20.420;2022-11-15T08:23:31;27.37;;;21.80;;
3046;SDS011;1533;44.816;20.420;2022-11-15T08:26:06;34.87;;;22.47;;
3046;SDS011;1533;44.816;20.420;2022-11-15T08:28:46;25.13;;;21.60;;
3046;SDS011;1533;44.816;20.420;2022-11-15T08:31:20;27.33;;;21.30;;
3046;SDS011;1533;44.816;20.420;2022-11-15T08:36:39;33.03;;;21.57;;
3046;SDS011;1533;44.816;20.420;2022-11-15T08:39:09;29.20;;;21.07;;
3046;SDS011;1533;44.816;20.420;2022-11-15T08:41:36;28.40;;;21.47;;
3046;SDS011;1533;44.816;20.420;2022-11-15T08:44:04;31.30;;;23.03;;
3046;SDS011;1533;44.816;20.420;2022-11-15T08:46:45;32.50;;;21.17;;
3046;SDS011;1533;44.816;20.420;2022-11-15T08:49:24;26.33;;;20.53;;
3046;SDS011;1533;44.816;20.420;2022-11-15T08:51:52;36.27;;;21.07;;
3046;SDS011;1533;44.816;20.420;2022-11-15T08:54:20;28.10;;;22.10;;
3046;SDS011;1533;44.816;20.420;2022-11-15T08:56:45;33.97;;;22.60;;
3046;SDS011;1533;44.816;20.420;2022-11-15T08:59:13;29.37;;;22.40;;
3046;SDS011;1533;44.816;20.420;2022-11-15T09:01:48;29.50;;;21.50;;
3046;SDS011;1533;44.816;20.420;2022-11-15T09:04:18;32.67;;;24.27;;
3046;SDS011;1533;44.816;20.420;2022-11-15T09:06:49;26.70;;;21.27;;
3046;SDS011;1533;44.816;20.420;2022-11-15T09:09:38;29.60;;;22.50;;
3046;SDS011;1533;44.816;20.420;2022-11-15T09:15:14;31.27;;;22.93;;
3046;SDS011;1533;44.816;20.420;2022-11-15T09:17:40;29.10;;;24.17;;
3046;SDS011;1533;44.816;20.420;2022-11-15T09:20:06;25.57;;;22.47;;
3046;SDS011;1533;44.816;20.420;2022-11-15T09:22:43;27.07;;;21.73;;
3046;SDS011;1533;44.816;20.420;2022-11-15T09:25:11;26.13;;;22.77;;
3046;SDS011;1533;44.816;20.420;2022-11-15T09:27:37;32.83;;;22.60;;
3046;SDS011;1533;44.816;20.420;2022-11-15T09:30:02;28.30;;;23.10;;
3046;SDS011;1533;44.816;20.420;2022-11-15T09:32:28;32.80;;;23.20;;
3046;SDS011;1533;44.816;20.420;2022-11-15T09:35:24;33.50;;;24.50;;
3046;SDS011;1533;44.816;20.420;2022-11-15T09:38:10;30.23;;;24.83;;
3046;SDS011;1533;44.816;20.420;2022-11-15T09:40:37;28.17;;;22.93;;
3046;SDS011;1533;44.816;20.420;2022-11-15T09:49:04;31.67;;;24.00;;
3046;SDS011;1533;44.816;20.420;2022-11-15T09:57:03;31.33;;;24.07;;
3046;SDS011;1533;44.816;20.420;2022-11-15T10:04:47;30.27;;;22.23;;
3046;SDS011;1533;44.816;20.420;2022-11-15T10:07:20;31.70;;;24.57;;
3046;SDS011;1533;44.816;20.420;2022-11-15T10:10:08;32.60;;;25.13;;
3046;SDS011;1533;44.816;20.420;2022-11-15T10:12:36;30.67;;;23.07;;
3046;SDS011;1533;44.816;20.420;2022-11-15T10:15:06;35.10;;;24.17;;
3046;SDS011;1533;44.816;20.420;2022-11-15T10:20:23;33.23;;;24.53;;
3046;SDS011;1533;44.816;20.420;2022-11-15T10:22:52;33.37;;;24.20;;
3046;SDS011;1533;44.816;20.420;2022-11-15T10:25:21;30.43;;;23.50;;
3046;SDS011;1533;44.816;20.420;2022-11-15T10:27:55;29.97;;;24.17;;
3046;SDS011;1533;44.816;20.420;2022-11-15T10:30:32;26.90;;;21.73;;
3046;SDS011;1533;44.816;20.420;2022-11-15T10:35:51;31.27;;;22.83;;
3046;SDS011;1533;44.816;20.420;2022-11-15T10:41:30;29.90;;;23.07;;
3046;SDS011;1533;44.816;20.420;2022-11-15T10:46:35;31.70;;;21.50;;
3046;SDS011;1533;44.816;20.420;2022-11-15T10:49:17;26.53;;;21.50;;
3046;SDS011;1533;44.816;20.420;2022-11-15T10:51:51;30.43;;;23.70;;
3046;SDS011;1533;44.816;20.420;2022-11-15T10:54:21;27.93;;;21.37;;
3046;SDS011;1533;44.816;20.420;2022-11-15T10:57:07;31.77;;;23.13;;
3046;SDS011;1533;44.816;20.420;2022-11-15T10:59:50;29.53;;;23.27;;
3046;SDS011;1533;44.816;20.420;2022-11-15T11:02:26;29.30;;;23.63;;
3046;SDS011;1533;44.816;20.420;2022-11-15T11:05:03;31.43;;;22.83;;
3046;SDS011;1533;44.816;20.420;2022-11-15T11:07:32;32.50;;;22.50;;
3046;SDS011;1533;44.816;20.420;2022-11-15T11:10:20;28.93;;;22.80;;
3046;SDS011;1533;44.816;20.420;2022-11-15T11:12:45;28.20;;;22.50;;
3046;SDS011;1533;44.816;20.420;2022-11-15T11:15:12;29.00;;;22.00;;
3046;SDS011;1533;44.816;20.420;2022-11-15T11:20:33;27.50;;;21.33;;
3046;SDS011;1533;44.816;20.420;2022-11-15T11:23:33;34.30;;;24.20;;
3046;SDS011;1533;44.816;20.420;2022-11-15T11:28:57;32.97;;;25.03;;
3046;SDS011;1533;44.816;20.420;2022-11-15T11:37:35;32.00;;;22.67;;
3046;SDS011;1533;44.816;20.420;2022-11-15T11:43:14;37.93;;;25.87;;
3046;SDS011;1533;44.816;20.420;2022-11-15T11:45:56;38.60;;;27.43;;
3046;SDS011;1533;44.816;20.420;2022-11-15T11:49:06;31.60;;;25.03;;
3046;SDS011;1533;44.816;20.420;2022-11-15T11:54:34;33.07;;;24.57;;
3046;SDS011;1533;44.816;20.420;2022-11-15T11:57:44;33.53;;;25.40;;
3046;SDS011;1533;44.816;20.420;2022-11-15T12:00:22;32.83;;;25.13;;
3046;SDS011;1533;44.816;20.420;2022-11-15T12:05:35;35.67;;;25.80;;
3046;SDS011;1533;44.816;20.420;2022-11-15T12:08:31;35.30;;;25.77;;
3046;SDS011;1533;44.816;20.420;2022-11-15T12:14:11;31.07;;;25.83;;
